Time;durP1;ratioP1;P1;durP2;ratioP2;P2;SDS_P1;SDS_P2;PMS_P1;PMS_P2;Temp;Humidity;BMP_temperature;BMP_pressure;BME280_temperature;BME280_humidity;BME280_pressure;Samples;Min_cycle;Max_cycle;Signal;HPM_P1;HPM_P2
2022/03/14 00:01:39;;;;;;;56.37;18.05;;;;;;;-2.78;59.15;100561.48;1688465;85;20972;-82
2022/03/14 00:04:06;;;;;;;78.85;22.48;;;;;;;-2.82;60.41;100566.80;1722174;81;21040;-82
2022/03/14 00:06:35;;;;;;;69.72;25.17;;;;;;;-2.89;59.36;100563.45;1732334;82;20991;-82
2022/03/14 00:09:06;;;;;;;62.55;21.85;;;;;;;-2.96;57.23;100572.81;1744746;82;20986;-82
2022/03/14 00:11:30;;;;;;;85.35;23.92;;;;;;;-3.02;58.40;100570.45;1723069;82;21038;-81
2022/03/14 00:13:57;;;;;;;57.75;20.72;;;;;;;-3.06;60.18;100573.63;1727178;82;21131;-80
2022/03/14 00:16:36;;;;;;;49.35;18.00;;;;;;;-3.11;58.64;100575.44;1722471;82;20979;-80
2022/03/14 00:18:55;;;;;;;45.60;18.45;;;;;;;-3.18;59.11;100574.62;1731015;82;20984;-78
2022/03/14 00:21:23;;;;;;;50.05;19.12;;;;;;;-3.20;61.38;100583.47;1731197;82;20920;-80
2022/03/14 00:23:55;;;;;;;40.85;16.07;;;;;;;-3.20;59.32;100581.80;1732629;82;20968;-80
2022/03/14 00:26:22;;;;;;;56.18;17.70;;;;;;;-3.22;59.75;100578.29;1750340;82;20983;-80
2022/03/14 00:28:52;;;;;;;48.20;17.95;;;;;;;-3.23;60.01;100574.38;1737476;82;20980;-80
2022/03/14 00:31:20;;;;;;;53.50;16.27;;;;;;;-3.20;60.79;100581.80;1746426;80;21030;-80
2022/03/14 00:33:46;;;;;;;48.10;16.73;;;;;;;-3.14;62.06;100588.88;1723881;82;21003;-80
2022/03/14 00:36:13;;;;;;;36.70;14.55;;;;;;;-3.15;59.73;100587.11;1741909;82;20941;-80
2022/03/14 00:38:40;;;;;;;41.08;15.00;;;;;;;-3.15;60.16;100588.39;1746378;82;21015;-80
2022/03/14 00:41:08;;;;;;;43.00;13.72;;;;;;;-3.11;60.69;100597.94;1747668;82;21031;-80
2022/03/14 00:43:36;;;;;;;30.52;13.48;;;;;;;-3.06;61.95;100596.52;1712021;82;20999;-80
2022/03/14 00:46:03;;;;;;;36.05;15.65;;;;;;;-3.04;61.17;100592.80;1720500;82;21008;-80
2022/03/14 00:48:32;;;;;;;34.08;13.58;;;;;;;-3.02;62.18;100594.62;1726131;82;21011;-80
2022/03/14 00:50:59;;;;;;;36.25;13.75;;;;;;;-3.04;61.39;100600.03;1734876;82;21008;-81
2022/03/14 00:53:25;;;;;;;50.15;14.83;;;;;;;-3.05;61.73;100597.39;1749910;82;21009;-80
2022/03/14 00:55:52;;;;;;;62.55;16.27;;;;;;;-3.03;59.83;100602.16;1750067;82;21431;-78
2022/03/14 00:58:18;;;;;;;46.70;15.25;;;;;;;-3.05;61.46;100601.20;1729133;82;20959;-80
2022/03/14 01:00:47;;;;;;;49.83;15.78;;;;;;;-3.07;62.44;100607.48;1744458;82;20982;-79
2022/03/14 01:03:13;;;;;;;46.00;16.40;;;;;;;-3.07;61.55;100602.80;1746851;82;21550;-81
2022/03/14 01:05:39;;;;;;;35.33;14.33;;;;;;;-3.10;61.56;100609.87;1735774;82;21003;-80
2022/03/14 01:08:09;;;;;;;37.38;13.53;;;;;;;-3.16;58.77;100608.65;1734054;82;20982;-80
2022/03/14 01:10:35;;;;;;;42.85;14.75;;;;;;;-3.23;62.32;100604.91;1742970;82;20980;-79
2022/03/14 01:13:03;;;;;;;38.65;13.30;;;;;;;-3.25;62.10;100609.03;1724637;82;20954;-80
2022/03/14 01:15:31;;;;;;;38.65;12.93;;;;;;;-3.28;62.07;100603.80;1731894;82;21019;-79
2022/03/14 01:18:00;;;;;;;32.63;12.85;;;;;;;-3.30;62.67;100602.44;1728735;82;20945;-80
2022/03/14 01:20:26;;;;;;;32.90;13.53;;;;;;;-3.34;61.83;100614.51;1728041;82;20986;-79
2022/03/14 01:22:56;;;;;;;32.65;13.68;;;;;;;-3.35;60.25;100606.78;1719985;83;21021;-80
2022/03/14 01:25:27;;;;;;;36.75;14.75;;;;;;;-3.35;62.28;100606.78;1726715;82;21076;-80
2022/03/14 01:27:57;;;;;;;29.52;12.90;;;;;;;-3.40;59.17;100605.27;1734869;82;20994;-79
2022/03/14 01:30:24;;;;;;;38.67;14.87;;;;;;;-3.46;61.92;100613.44;1728929;80;21120;-80
2022/03/14 01:32:51;;;;;;;32.85;14.45;;;;;;;-3.45;63.21;100614.30;1728101;82;20963;-79
2022/03/14 01:35:18;;;;;;;33.00;12.98;;;;;;;-3.48;60.40;100611.20;1719825;82;21006;-79
2022/03/14 01:37:48;;;;;;;21.93;11.97;;;;;;;-3.53;63.01;100608.78;1729484;82;20983;-79
2022/03/14 01:40:14;;;;;;;35.03;14.20;;;;;;;-3.52;61.80;100613.09;1719921;80;20979;-79
2022/03/14 01:42:40;;;;;;;29.63;13.43;;;;;;;-3.55;61.94;100606.56;1725933;82;20967;-80
2022/03/14 01:45:08;;;;;;;28.87;12.75;;;;;;;-3.58;60.76;100615.30;1719111;80;20955;-79
2022/03/14 01:47:34;;;;;;;30.95;12.82;;;;;;;-3.63;62.39;100609.07;1735013;82;20944;-79
2022/03/14 01:50:01;;;;;;;32.30;13.62;;;;;;;-3.64;62.09;100608.58;1727924;82;21000;-79
2022/03/14 01:52:28;;;;;;;39.53;14.65;;;;;;;-3.62;62.04;100614.62;1746096;81;20991;-80
2022/03/14 01:54:55;;;;;;;33.75;13.20;;;;;;;-3.62;61.20;100616.79;1746166;82;20991;-79
2022/03/14 01:57:22;;;;;;;41.13;14.43;;;;;;;-3.64;60.75;100617.47;1730794;82;20958;-79
2022/03/14 01:59:49;;;;;;;37.45;14.15;;;;;;;-3.66;62.83;100618.68;1718882;80;20959;-79
2022/03/14 02:02:20;;;;;;;32.98;14.05;;;;;;;-3.68;62.54;100616.81;1741478;80;20976;-79
2022/03/14 02:04:47;;;;;;;32.58;13.55;;;;;;;-3.70;62.30;100620.94;1718124;82;21010;-79
2022/03/14 02:07:14;;;;;;;37.95;13.95;;;;;;;-3.70;60.17;100626.92;1722574;82;21022;-79
2022/03/14 02:09:40;;;;;;;35.17;15.53;;;;;;;-3.78;61.52;100624.31;1740462;82;21745;-81
2022/03/14 02:12:09;;;;;;;37.60;15.23;;;;;;;-3.78;61.54;100628.53;1725796;82;20979;-81
2022/03/14 02:14:39;;;;;;;37.88;15.40;;;;;;;-3.78;62.31;100633.61;1734496;82;20984;-81
2022/03/14 02:17:12;;;;;;;35.90;14.35;;;;;;;-3.82;60.29;100638.91;1719639;82;21016;-81
2022/03/14 02:19:40;;;;;;;30.57;11.63;;;;;;;-3.88;62.05;100633.48;1728286;82;20980;-80
2022/03/14 02:22:12;;;;;;;33.90;13.70;;;;;;;-3.89;60.81;100644.05;1737657;82;20997;-81
2022/03/14 02:24:39;;;;;;;33.48;14.45;;;;;;;-3.91;61.66;100639.27;1739096;82;20970;-81
2022/03/14 02:27:05;;;;;;;42.33;15.40;;;;;;;-3.86;61.87;100640.42;1732900;82;20979;-81
2022/03/14 02:29:32;;;;;;;34.70;13.95;;;;;;;-3.83;62.19;100638.44;1709850;83;20962;-82
2022/03/14 02:31:59;;;;;;;39.27;14.35;;;;;;;-3.80;61.86;100647.13;1730178;82;21118;-82
2022/03/14 02:34:26;;;;;;;33.75;14.85;;;;;;;-3.77;62.62;100647.69;1732781;82;20970;-82
2022/03/14 02:36:52;;;;;;;43.68;15.50;;;;;;;-3.74;62.87;100652.06;1748607;82;20977;-82
2022/03/14 02:39:19;;;;;;;37.78;13.62;;;;;;;-3.73;62.25;100651.28;1738725;82;20959;-81
2022/03/14 02:41:45;;;;;;;32.35;13.45;;;;;;;-3.73;62.30;100657.64;1738791;82;20947;-81
2022/03/14 02:44:13;;;;;;;35.25;15.48;;;;;;;-3.72;62.41;100661.92;1735292;82;21027;-81
2022/03/14 02:46:40;;;;;;;39.63;15.80;;;;;;;-3.76;61.66;100671.43;1731879;80;21008;-81
2022/03/14 02:49:09;;;;;;;32.15;13.55;;;;;;;-3.87;62.99;100667.87;1705819;83;21004;-82
2022/03/14 02:51:41;;;;;;;35.20;15.45;;;;;;;-3.96;62.17;100680.44;1744017;82;20984;-82
2022/03/14 02:54:10;;;;;;;37.00;13.93;;;;;;;-4.01;62.85;100683.59;1686104;85;21477;-82
2022/03/14 02:56:41;;;;;;;33.60;14.75;;;;;;;-4.08;63.54;100680.23;1724344;82;21037;-81
2022/03/14 02:59:10;;;;;;;41.53;15.93;;;;;;;-4.11;62.96;100685.52;1720626;82;21034;-82
2022/03/14 03:01:37;;;;;;;35.38;14.33;;;;;;;-4.18;64.35;100688.46;1725346;80;20978;-83
2022/03/14 03:04:06;;;;;;;42.53;14.83;;;;;;;-4.32;64.59;100693.58;1747770;82;21003;-81
2022/03/14 03:06:33;;;;;;;33.02;13.60;;;;;;;-4.41;63.89;100696.46;1755645;82;21022;-82
2022/03/14 03:09:02;;;;;;;36.63;14.10;;;;;;;-4.45;64.79;100696.19;1739824;81;20958;-82
2022/03/14 03:11:30;;;;;;;34.20;13.28;;;;;;;-4.45;65.19;100698.33;1752707;81;21000;-81
2022/03/14 03:13:57;;;;;;;38.83;14.43;;;;;;;-4.44;63.75;100703.01;1761688;81;21590;-82
2022/03/14 03:16:23;;;;;;;37.83;14.58;;;;;;;-4.41;64.56;100704.08;1744368;81;20955;-81
2022/03/14 03:18:50;;;;;;;43.45;14.25;;;;;;;-4.37;64.51;100705.14;1756690;81;20967;-82
2022/03/14 03:21:16;;;;;;;42.83;15.32;;;;;;;-4.35;62.66;100707.38;1762782;81;20995;-82
2022/03/14 03:23:43;;;;;;;47.43;14.60;;;;;;;-4.40;64.88;100707.48;1763774;81;20967;-81
2022/03/14 03:26:12;;;;;;;39.30;15.20;;;;;;;-4.43;65.28;100699.70;1736711;81;20979;-81
2022/03/14 03:28:38;;;;;;;39.48;15.85;;;;;;;-4.43;65.34;100700.97;1758044;81;20996;-81
2022/03/14 03:31:11;;;;;;;38.02;14.58;;;;;;;-4.41;65.02;100703.20;1756988;82;20993;-82
2022/03/14 03:33:38;;;;;;;36.68;16.15;;;;;;;-4.37;65.08;100709.35;1711239;82;20965;-82
2022/03/14 03:36:07;;;;;;;41.25;15.58;;;;;;;-4.35;64.76;100713.73;1754393;82;21142;-82
2022/03/14 03:38:34;;;;;;;48.40;16.35;;;;;;;-4.33;64.10;100716.38;1752266;81;20977;-82
2022/03/14 03:41:01;;;;;;;34.63;14.00;;;;;;;-4.35;65.72;100715.00;1746287;81;20986;-81
2022/03/14 03:43:28;;;;;;;33.73;16.40;;;;;;;-4.35;63.57;100718.81;1756135;81;20986;-82
2022/03/14 03:45:54;;;;;;;39.75;16.50;;;;;;;-4.36;61.53;100718.31;1757236;82;21044;-82
2022/03/14 03:48:21;;;;;;;39.48;15.08;;;;;;;-4.43;64.84;100714.53;1738325;80;21414;-82
2022/03/14 03:50:48;;;;;;;34.95;13.98;;;;;;;-4.42;65.18;100712.86;1754246;81;20970;-82
2022/03/14 03:53:14;;;;;;;39.67;15.98;;;;;;;-4.42;64.78;100715.40;1752918;81;20962;-81
2022/03/14 03:55:41;;;;;;;36.30;14.45;;;;;;;-4.39;63.50;100720.67;1733960;83;21025;-82
2022/03/14 03:58:08;;;;;;;39.73;15.73;;;;;;;-4.40;63.86;100721.45;1744498;81;21003;-82
2022/03/14 04:00:35;;;;;;;48.23;16.80;;;;;;;-4.39;64.43;100729.56;1763494;81;21020;-83
2022/03/14 04:03:02;;;;;;;41.68;16.40;;;;;;;-4.36;63.89;100731.41;1763966;81;21087;-82
2022/03/14 04:05:30;;;;;;;45.30;15.63;;;;;;;-4.38;64.74;100732.57;1752490;81;20983;-82
2022/03/14 04:08:02;;;;;;;37.05;15.05;;;;;;;-4.36;64.85;100744.10;1725118;82;21029;-82
2022/03/14 04:10:28;;;;;;;35.20;14.00;;;;;;;-4.34;64.50;100739.99;1728178;82;20998;-81
2022/03/14 04:13:03;;;;;;;34.65;15.58;;;;;;;-4.30;65.03;100744.47;1727230;82;21057;-82
2022/03/14 04:15:27;;;;;;;40.15;15.48;;;;;;;-4.27;64.57;100756.09;1715303;82;20998;-83
2022/03/14 04:17:56;;;;;;;43.70;16.15;;;;;;;-4.27;64.36;100755.70;1737780;82;20962;-82
2022/03/14 04:20:23;;;;;;;48.20;15.45;;;;;;;-4.28;64.94;100759.00;1738726;82;20980;-83
2022/03/14 04:22:51;;;;;;;44.60;18.42;;;;;;;-4.34;64.53;100765.38;1719581;83;20986;-82
2022/03/14 04:25:17;;;;;;;48.85;21.25;;;;;;;-4.42;63.80;100769.63;1694056;84;21003;-82
2022/03/14 04:27:44;;;;;;;49.18;21.02;;;;;;;-4.55;64.28;100770.91;1737075;82;20971;-82
2022/03/14 04:30:11;;;;;;;39.53;18.95;;;;;;;-4.63;63.31;100775.50;1738966;82;20955;-82
2022/03/14 04:32:38;;;;;;;61.45;19.90;;;;;;;-4.67;65.32;100773.95;1735681;82;21427;-82
2022/03/14 04:35:06;;;;;;;60.70;17.98;;;;;;;-4.68;64.75;100780.66;1722019;82;20976;-82
2022/03/14 04:37:32;;;;;;;45.08;18.15;;;;;;;-4.69;63.83;100781.46;1749722;82;20947;-82
2022/03/14 04:39:58;;;;;;;41.02;16.62;;;;;;;-4.71;65.14;100780.48;1724099;81;20966;-81
2022/03/14 04:42:25;;;;;;;46.53;16.62;;;;;;;-4.78;63.76;100787.61;1748663;82;21052;-82
2022/03/14 04:44:54;;;;;;;44.88;16.27;;;;;;;-4.84;63.85;100785.56;1749618;82;20956;-80
2022/03/14 04:47:20;;;;;;;41.75;17.17;;;;;;;-4.84;65.37;100794.44;1737929;82;21553;-82
2022/03/14 04:49:46;;;;;;;42.65;18.12;;;;;;;-4.82;66.48;100792.48;1749598;82;20948;-82
2022/03/14 04:52:13;;;;;;;49.38;19.07;;;;;;;-4.79;66.75;100796.89;1735109;82;20984;-82
2022/03/14 04:54:39;;;;;;;38.60;16.93;;;;;;;-4.81;64.59;100787.03;1731655;82;20959;-82
2022/03/14 04:57:06;;;;;;;55.70;18.00;;;;;;;-4.80;65.53;100796.39;1721804;82;21487;-82
2022/03/14 04:59:33;;;;;;;85.47;23.42;;;;;;;-4.83;65.47;100797.48;1726661;82;20967;-82
2022/03/14 05:01:59;;;;;;;71.57;22.90;;;;;;;-4.93;66.97;100802.72;1732936;82;20967;-82
2022/03/14 05:04:26;;;;;;;66.47;22.65;;;;;;;-5.06;66.64;100803.59;1736652;82;21060;-80
2022/03/14 05:06:52;;;;;;;59.18;21.20;;;;;;;-5.10;67.77;100807.59;1720692;83;20947;-82
2022/03/14 05:09:19;;;;;;;59.48;20.88;;;;;;;-5.02;67.69;100807.69;1743038;80;21507;-83
2022/03/14 05:11:45;;;;;;;74.85;22.40;;;;;;;-4.98;67.32;100811.70;1682584;83;21004;-82
2022/03/14 05:14:12;;;;;;;75.55;24.35;;;;;;;-4.94;67.30;100815.80;1730850;80;20990;-82
2022/03/14 05:16:39;;;;;;;102.85;30.23;;;;;;;-4.88;67.09;100812.38;1720603;83;21017;-82
2022/03/14 05:19:05;;;;;;;128.47;34.67;;;;;;;-4.80;67.18;100814.15;1744075;82;20975;-82
2022/03/14 05:21:33;;;;;;;73.92;25.45;;;;;;;-4.74;66.19;100821.28;1750470;82;21108;-82
2022/03/14 05:24:00;;;;;;;63.05;20.30;;;;;;;-4.76;68.35;100826.64;1728368;82;20958;-81
2022/03/14 05:26:26;;;;;;;52.60;21.02;;;;;;;-4.86;68.20;100822.23;1744547;82;21019;-81
2022/03/14 05:28:53;;;;;;;65.20;20.50;;;;;;;-4.90;67.17;100830.84;1737905;82;20948;-82
2022/03/14 05:31:20;;;;;;;54.90;20.23;;;;;;;-4.90;66.47;100829.16;1724315;80;21021;-82
2022/03/14 05:33:47;;;;;;;56.42;23.07;;;;;;;-4.88;68.46;100832.68;1736326;82;20986;-80
2022/03/14 05:36:13;;;;;;;52.23;18.85;;;;;;;-4.90;69.40;100834.24;1736861;80;20995;-83
2022/03/14 05:38:40;;;;;;;64.45;22.58;;;;;;;-4.89;68.43;100836.41;1720497;82;21419;-82
2022/03/14 05:41:08;;;;;;;57.70;22.50;;;;;;;-4.86;67.82;100846.73;1720019;83;20998;-82
2022/03/14 05:43:37;;;;;;;54.95;19.20;;;;;;;-4.82;68.05;100848.70;1729684;82;20927;-80
2022/03/14 05:46:06;;;;;;;45.03;18.32;;;;;;;-4.77;67.91;100839.73;1749154;82;20924;-81
2022/03/14 05:48:35;;;;;;;40.55;17.60;;;;;;;-4.71;67.53;100846.47;1745619;82;20968;-81
2022/03/14 05:51:04;;;;;;;40.40;16.57;;;;;;;-4.60;67.33;100847.14;1747928;82;20987;-81
2022/03/14 05:53:31;;;;;;;53.58;16.30;;;;;;;-4.50;66.94;100846.06;1744817;82;21002;-82
2022/03/14 05:55:58;;;;;;;48.23;20.60;;;;;;;-4.40;66.52;100849.30;1747842;82;20981;-81
2022/03/14 05:58:24;;;;;;;64.03;23.18;;;;;;;-4.31;67.61;100850.25;1751322;82;21068;-82
2022/03/14 06:00:54;;;;;;;67.65;24.30;;;;;;;-4.17;67.49;100852.78;1726107;82;20939;-81
2022/03/14 06:03:21;;;;;;;64.92;23.42;;;;;;;-4.04;67.01;100857.81;1741586;82;21027;-83
2022/03/14 06:05:48;;;;;;;59.00;22.45;;;;;;;-3.93;66.83;100855.95;1750744;82;21018;-82
2022/03/14 06:08:18;;;;;;;50.67;22.77;;;;;;;-3.79;67.54;100858.94;1732666;82;21039;-82
2022/03/14 06:10:46;;;;;;;58.52;21.50;;;;;;;-3.67;67.04;100856.26;1727431;82;21000;-84
2022/03/14 06:13:16;;;;;;;39.03;18.27;;;;;;;-3.57;66.26;100861.11;1750903;82;20993;-84
2022/03/14 06:15:43;;;;;;;54.33;18.77;;;;;;;-3.47;65.18;100864.67;1750449;82;20975;-83
2022/03/14 06:18:10;;;;;;;63.48;19.23;;;;;;;-3.39;66.57;100867.67;1736493;82;21024;-82
2022/03/14 06:20:37;;;;;;;50.65;18.73;;;;;;;-3.28;66.51;100864.11;1729068;82;20967;-82
2022/03/14 06:23:03;;;;;;;39.80;19.70;;;;;;;-3.16;65.79;100863.95;1748482;82;20900;-81
2022/03/14 06:25:30;;;;;;;55.90;21.68;;;;;;;-3.11;66.38;100865.08;1727655;79;21087;-81
2022/03/14 06:27:57;;;;;;;55.58;20.97;;;;;;;-3.02;65.69;100868.17;1749220;81;21040;-80
2022/03/14 06:30:24;;;;;;;65.95;25.72;;;;;;;-2.92;65.79;100869.58;1744879;80;20961;-83
2022/03/14 06:32:51;;;;;;;58.40;22.27;;;;;;;-2.82;65.58;100866.77;1732563;81;21003;-82
2022/03/14 06:35:18;;;;;;;62.95;25.45;;;;;;;-2.71;65.74;100869.03;1727486;82;21484;-81
2022/03/14 06:37:45;;;;;;;57.62;24.00;;;;;;;-2.63;63.99;100877.98;1732569;82;20980;-82
2022/03/14 06:40:13;;;;;;;55.23;21.37;;;;;;;-2.58;64.84;100871.49;1768709;81;21012;-83
2022/03/14 06:42:41;;;;;;;54.18;21.82;;;;;;;-2.50;64.18;100877.02;1738850;81;20973;-82
2022/03/14 06:45:09;;;;;;;56.20;19.67;;;;;;;-2.42;64.50;100878.31;1680381;83;21500;-81
2022/03/14 06:47:38;;;;;;;57.30;23.25;;;;;;;-2.35;64.20;100884.22;1746977;80;21018;-83
2022/03/14 06:50:08;;;;;;;61.10;23.67;;;;;;;-2.31;63.73;100881.05;1745134;81;21033;-82
2022/03/14 06:52:35;;;;;;;50.58;22.70;;;;;;;-2.24;63.92;100884.42;1717233;80;21148;-80
2022/03/14 06:55:04;;;;;;;59.80;24.20;;;;;;;-2.16;63.44;100893.77;1781023;77;21177;-81
2022/03/14 06:57:31;;;;;;;62.33;24.85;;;;;;;-2.11;63.48;100887.27;1824086;77;21609;-79
2022/03/14 06:59:58;;;;;;;55.92;22.58;;;;;;;-2.03;63.65;100888.55;1776169;79;20967;-78
2022/03/14 07:02:30;;;;;;;60.40;24.75;;;;;;;-1.94;63.10;100893.26;1809657;78;20977;-78
2022/03/14 07:04:54;;;;;;;69.32;23.57;;;;;;;-1.88;63.04;100893.98;1816035;77;20986;-80
2022/03/14 07:07:21;;;;;;;75.32;29.40;;;;;;;-1.81;62.63;100896.95;1819884;77;21462;-80
2022/03/14 07:09:48;;;;;;;71.40;25.75;;;;;;;-1.71;62.48;100889.77;1815848;77;20959;-81
2022/03/14 07:12:14;;;;;;;79.92;28.23;;;;;;;-1.62;62.61;100892.82;1810547;79;21136;-81
2022/03/14 07:14:41;;;;;;;55.43;23.22;;;;;;;-1.49;61.82;100891.78;1815943;77;20990;-81
2022/03/14 07:17:07;;;;;;;89.07;29.12;;;;;;;-1.38;61.83;100900.01;1822715;77;20940;-79
2022/03/14 07:19:34;;;;;;;62.00;22.60;;;;;;;-1.27;61.58;100902.73;1812469;78;20948;-78
2022/03/14 07:22:02;;;;;;;62.43;26.40;;;;;;;-1.16;61.29;100905.81;1813092;77;20979;-80
2022/03/14 07:24:28;;;;;;;50.88;21.73;;;;;;;-1.05;60.85;100899.18;1812834;77;20940;-78
2022/03/14 07:26:55;;;;;;;59.53;22.17;;;;;;;-0.94;60.61;100902.26;1824652;78;20990;-81
2022/03/14 07:29:22;;;;;;;62.80;21.02;;;;;;;-0.85;60.03;100900.17;1814357;77;20990;-79
2022/03/14 07:31:49;;;;;;;62.98;26.73;;;;;;;-0.75;59.44;100896.81;1810811;78;21491;-77
2022/03/14 07:34:15;;;;;;;56.85;21.82;;;;;;;-0.66;59.65;100901.08;1813366;79;20948;-82
2022/03/14 07:36:42;;;;;;;64.77;26.00;;;;;;;-0.57;59.27;100894.28;1762798;78;21042;-81
2022/03/14 07:39:08;;;;;;;54.58;22.73;;;;;;;-0.47;58.92;100892.64;1780822;80;20980;-81
2022/03/14 07:41:36;;;;;;;76.35;27.62;;;;;;;-0.41;59.41;100891.66;1768176;80;21007;-83
2022/03/14 07:44:05;;;;;;;59.15;22.67;;;;;;;-0.28;59.29;100887.98;1772728;79;20982;-77
2022/03/14 07:46:34;;;;;;;59.98;24.35;;;;;;;-0.21;58.50;100887.08;1773223;79;21014;-79
2022/03/14 07:49:01;;;;;;;50.33;21.57;;;;;;;-0.10;58.22;100892.71;1732278;80;21220;-83
2022/03/14 07:51:28;;;;;;;55.45;23.55;;;;;;;-0.03;57.54;100890.03;1723826;82;20987;-80
2022/03/14 07:53:55;;;;;;;66.33;23.77;;;;;;;0.05;57.38;100889.97;1721182;82;21017;-81
2022/03/14 07:56:21;;;;;;;57.75;23.95;;;;;;;0.15;57.11;100890.86;1756101;81;21003;-83
2022/03/14 07:58:49;;;;;;;70.05;24.72;;;;;;;0.26;56.99;100893.93;1713005;83;21090;-78
2022/03/14 08:01:17;;;;;;;60.33;25.97;;;;;;;0.37;56.79;100895.68;1748025;80;20969;-81
2022/03/14 08:03:45;;;;;;;65.47;27.93;;;;;;;0.46;56.41;100895.20;1713940;82;21042;-81
2022/03/14 08:06:17;;;;;;;60.88;24.25;;;;;;;0.55;56.23;100895.20;1735375;81;20985;-79
2022/03/14 08:08:40;;;;;;;54.58;22.62;;;;;;;0.70;56.37;100897.99;1736039;81;20986;-78
2022/03/14 08:11:07;;;;;;;54.65;21.65;;;;;;;0.83;55.94;100898.97;1717078;82;21059;-78
2022/03/14 08:13:34;;;;;;;57.38;23.55;;;;;;;0.95;55.39;100896.06;1739090;81;21820;-78
2022/03/14 08:16:00;;;;;;;60.23;22.55;;;;;;;1.05;55.48;100898.20;1742850;81;20964;-79
2022/03/14 08:18:27;;;;;;;55.17;20.48;;;;;;;1.12;53.98;100904.48;1744105;81;21011;-79
2022/03/14 08:20:57;;;;;;;49.77;19.40;;;;;;;1.19;54.29;100901.34;1745676;81;21028;-77
2022/03/14 08:23:22;;;;;;;50.08;19.50;;;;;;;1.28;54.00;100894.46;1745670;81;20984;-79
2022/03/14 08:25:48;;;;;;;49.93;17.40;;;;;;;1.39;54.58;100898.31;1741827;81;21075;-81
2022/03/14 08:28:15;;;;;;;44.20;18.27;;;;;;;1.49;53.93;100904.31;1741835;81;21091;-81
2022/03/14 08:30:44;;;;;;;36.40;15.85;;;;;;;1.59;53.11;100901.30;1746654;81;20954;-81
2022/03/14 08:33:11;;;;;;;37.55;17.45;;;;;;;1.70;52.93;100898.28;1744510;81;20955;-83
2022/03/14 08:35:37;;;;;;;48.75;21.27;;;;;;;1.81;52.20;100899.98;1749804;78;21146;-78
2022/03/14 08:38:04;;;;;;;34.15;14.40;;;;;;;1.89;51.22;100901.14;1800471;79;20991;-80
2022/03/14 08:40:31;;;;;;;34.95;14.25;;;;;;;1.94;51.67;100893.23;1797202;78;20958;-80
2022/03/14 08:42:58;;;;;;;30.80;12.30;;;;;;;2.02;51.68;100883.27;1804299;78;20971;-80
2022/03/14 08:45:25;;;;;;;38.50;15.60;;;;;;;2.13;51.35;100888.38;1743629;79;21061;-82
2022/03/14 08:47:53;;;;;;;36.90;15.32;;;;;;;2.23;50.89;100887.94;1732964;81;21040;-82
2022/03/14 08:50:20;;;;;;;25.57;12.35;;;;;;;2.29;47.90;100886.88;1721940;81;20978;-80
2022/03/14 08:52:46;;;;;;;41.85;19.37;;;;;;;2.35;49.96;100887.52;1718088;81;21026;-83
2022/03/14 08:55:13;;;;;;;41.55;15.23;;;;;;;2.45;50.73;100884.47;1733491;81;21033;-82
2022/03/14 08:57:42;;;;;;;32.85;13.48;;;;;;;2.57;50.12;100881.47;1760227;80;21052;-83
2022/03/14 09:00:11;;;;;;;34.27;15.08;;;;;;;2.68;50.70;100881.42;1756097;80;21079;-83
2022/03/14 09:02:40;;;;;;;30.52;14.38;;;;;;;2.81;50.37;100877.61;1768023;80;20976;-81
2022/03/14 09:05:07;;;;;;;30.30;13.95;;;;;;;2.91;48.30;100879.67;1754851;80;20969;-83
2022/03/14 09:07:34;;;;;;;37.40;14.65;;;;;;;2.99;49.73;100873.09;1757929;80;20947;-85
2022/03/14 09:10:07;;;;;;;30.52;13.60;;;;;;;3.09;49.39;100870.84;1726306;81;21084;-85
2022/03/14 09:12:35;;;;;;;28.32;13.30;;;;;;;3.20;49.11;100881.05;1751703;81;20984;-80
2022/03/14 09:15:04;;;;;;;30.48;14.85;;;;;;;3.28;49.13;100874.50;1756185;80;20982;-83
2022/03/14 09:17:32;;;;;;;34.53;14.63;;;;;;;3.42;49.07;100879.19;1750987;80;20974;-79
2022/03/14 09:20:01;;;;;;;32.83;15.55;;;;;;;3.50;47.35;100872.20;1738110;81;20959;-85
2022/03/14 09:22:28;;;;;;;34.30;15.72;;;;;;;3.59;47.45;100872.48;1744451;81;21046;-84
2022/03/14 09:24:55;;;;;;;35.10;14.98;;;;;;;3.68;45.84;100868.45;1740464;81;21495;-86
2022/03/14 09:27:23;;;;;;;35.35;16.12;;;;;;;3.81;46.92;100869.72;1741084;81;21037;-78
2022/03/14 09:29:51;;;;;;;32.33;13.40;;;;;;;3.94;47.37;100865.41;1740275;81;21503;-78
2022/03/14 09:32:18;;;;;;;32.90;17.25;;;;;;;4.08;46.93;100869.66;1734893;81;21455;-79
2022/03/14 09:34:45;;;;;;;30.40;14.90;;;;;;;4.20;45.21;100868.75;1739274;81;21446;-82
2022/03/14 09:37:11;;;;;;;31.95;14.28;;;;;;;4.30;44.91;100866.90;1743294;81;20951;-86
2022/03/14 09:39:39;;;;;;;33.15;14.35;;;;;;;4.43;46.94;100859.09;1739873;81;20974;-89
2022/03/14 09:42:10;;;;;;;34.25;15.05;;;;;;;4.57;43.50;100859.48;1735870;81;21032;-85
2022/03/14 09:44:41;;;;;;;28.65;13.78;;;;;;;4.65;44.64;100857.98;1742147;81;20964;-85
2022/03/14 09:47:11;;;;;;;27.20;13.32;;;;;;;4.75;45.04;100860.39;1735995;81;20958;-84
2022/03/14 09:49:39;;;;;;;28.77;13.62;;;;;;;4.88;45.46;100853.45;1734054;81;20990;-85
2022/03/14 09:52:07;;;;;;;28.67;13.98;;;;;;;5.06;44.36;100852.19;1711454;81;20958;-86
2022/03/14 09:54:35;;;;;;;28.00;11.90;;;;;;;5.21;45.07;100852.55;1737985;81;21034;-79
2022/03/14 09:57:02;;;;;;;25.30;12.78;;;;;;;5.33;44.93;100860.61;1734817;81;20975;-79
2022/03/14 09:59:28;;;;;;;27.90;12.85;;;;;;;5.43;43.70;100857.84;1744177;81;21616;-78
2022/03/14 10:01:55;;;;;;;24.23;10.58;;;;;;;5.54;44.19;100854.22;1706627;82;20971;-84
2022/03/14 10:04:22;;;;;;;31.27;11.75;;;;;;;5.69;42.91;100850.70;1740373;81;21082;-83
2022/03/14 10:06:49;;;;;;;22.00;11.25;;;;;;;5.84;42.62;100850.16;1709196;82;21063;-84
2022/03/14 10:09:16;;;;;;;20.95;10.25;;;;;;;5.97;41.70;100852.65;1739554;81;20965;-82
2022/03/14 10:11:42;;;;;;;25.00;11.00;;;;;;;6.06;41.84;100851.96;1739399;81;21054;-78
2022/03/14 10:14:11;;;;;;;23.90;11.03;;;;;;;6.10;41.65;100852.05;1737162;81;21442;-79
2022/03/14 10:16:38;;;;;;;29.98;11.15;;;;;;;6.22;40.94;100847.56;1734066;81;21524;-82
2022/03/14 10:19:09;;;;;;;25.27;11.40;;;;;;;6.29;41.91;100842.12;1734144;82;20995;-79
2022/03/14 10:21:38;;;;;;;25.85;10.80;;;;;;;6.42;42.20;100838.92;1734115;82;20987;-78
2022/03/14 10:24:11;;;;;;;19.60;10.08;;;;;;;6.56;40.11;100831.04;1735395;81;20988;-80
2022/03/14 10:26:42;;;;;;;21.82;10.28;;;;;;;6.73;41.11;100832.63;1736434;81;21018;-83
2022/03/14 10:29:11;;;;;;;21.57;10.18;;;;;;;6.83;39.23;100836.26;1736242;82;20999;-80
2022/03/14 10:31:42;;;;;;;24.05;9.65;;;;;;;6.96;40.27;100833.45;1735351;82;21432;-79
2022/03/14 10:34:18;;;;;;;16.05;8.35;;;;;;;7.14;41.08;100841.95;1738947;81;21549;-79
2022/03/14 10:36:57;;;;;;;21.02;8.88;;;;;;;7.28;38.82;100826.26;1736923;81;20941;-82
2022/03/14 10:39:30;;;;;;;19.32;9.70;;;;;;;7.46;37.38;100831.25;1732451;82;21494;-84
2022/03/14 10:42:10;;;;;;;16.80;9.15;;;;;;;7.59;36.62;100826.72;1735595;81;21007;-83
2022/03/14 10:44:39;;;;;;;18.92;9.30;;;;;;;7.74;39.44;100832.55;1732847;82;21007;-83
2022/03/14 10:47:10;;;;;;;19.40;9.15;;;;;;;7.86;38.58;100824.95;1739843;81;20987;-85
2022/03/14 10:49:39;;;;;;;18.57;8.88;;;;;;;7.96;34.13;100826.81;1745281;80;21740;-81
2022/03/14 10:52:09;;;;;;;23.47;9.53;;;;;;;8.11;36.89;100825.27;1726761;82;20998;-84
2022/03/14 10:54:38;;;;;;;22.37;8.75;;;;;;;8.13;35.76;100827.02;1743591;81;21041;-84
2022/03/14 10:57:18;;;;;;;13.10;7.58;;;;;;;8.23;35.49;100824.11;1751291;80;20968;-85
2022/03/14 10:59:51;;;;;;;17.25;8.23;;;;;;;8.40;34.20;100826.92;1751221;81;21640;-83
2022/03/14 11:02:24;;;;;;;13.85;7.10;;;;;;;8.54;34.96;100821.92;1729440;82;20962;-84
2022/03/14 11:04:57;;;;;;;21.50;7.55;;;;;;;8.71;35.22;100814.30;1745814;81;21803;-83
2022/03/14 11:07:28;;;;;;;16.20;7.72;;;;;;;8.81;33.06;100810.94;1745084;81;20983;-84
2022/03/14 11:09:56;;;;;;;14.50;7.42;;;;;;;8.91;35.11;100806.71;1741661;81;20971;-83
2022/03/14 11:12:26;;;;;;;21.50;7.47;;;;;;;9.03;34.19;100811.14;1743428;81;21011;-85
2022/03/14 11:15:01;;;;;;;14.30;6.90;;;;;;;9.22;33.75;100798.77;1747718;80;21100;-82